Terminal Aerodrome Forecast
Issued by NWS

Home | Current Version | Previous Version | Text Only | Print | Product List | Glossary On
Versions: 1 2 3 4 5 6 7 8 9 10 11 12 13 14 15 16 17 18 19 20
000
FTUS43 KFGF 021700
TAFTVF
TAF
KTVF 021720Z 0218/0318 24009KT P6SM -SHRA BKN070
     FM022000 23012G18KT P6SM VCSH BKN060
     FM030200 19006KT P6SM SKC
     FM031200 12007KT P6SM SCT250
      AMD LTD TO CLD VIS AND WIND=

USA.gov is the U.S. government's official web portal to all federal, state and local government web resources and services.